Time;durP1;ratioP1;P1;durP2;ratioP2;P2;SDS_P1;SDS_P2;PMS_P1;PMS_P2;Temp;Humidity;BMP_temperature;BMP_pressure;BME280_temperature;BME280_humidity;BME280_pressure;Samples;Min_cycle;Max_cycle;Signal;HPM_P1;HPM_P2
2022/12/17 13:05:59;;;;;;;35.70;22.00;;;;;;;-3.88;76.49;101833.38;6208047;23;20081;-72
2022/12/17 13:09:25;;;;;;;37.47;21.98;;;;;;;-3.89;75.58;101829.94;6190804;23;20198;-72
2022/12/17 13:13:09;;;;;;;32.10;20.45;;;;;;;-3.82;75.86;101838.66;6208932;23;20064;-72
2022/12/17 13:16:49;;;;;;;34.22;21.08;;;;;;;-3.79;75.66;101834.47;6208844;23;20471;-71
2022/12/17 13:19:55;;;;;;;31.92;19.88;;;;;;;-3.77;75.84;101843.03;6207058;23;20028;-72
2022/12/17 13:23:16;;;;;;;36.22;21.35;;;;;;;-3.58;74.52;101829.06;6209698;23;20082;-73
2022/12/17 13:26:23;;;;;;;34.67;21.60;;;;;;;-3.76;74.70;101833.72;6208783;23;20027;-73
2022/12/17 13:29:36;;;;;;;35.10;19.85;;;;;;;-3.84;75.65;101819.84;6208316;23;20555;-73
2022/12/17 13:32:55;;;;;;;33.25;20.33;;;;;;;-3.86;75.76;101821.47;6207832;23;20086;-73
2022/12/17 13:36:15;;;;;;;33.38;21.52;;;;;;;-3.88;75.76;101828.25;6189812;23;20031;-73
2022/12/17 13:39:44;;;;;;;33.50;21.05;;;;;;;-3.84;75.72;101830.06;6208240;23;20023;-74
2022/12/17 13:42:47;;;;;;;33.30;21.77;;;;;;;-3.86;76.44;101832.59;6209452;23;20118;-73
2022/12/17 13:45:54;;;;;;;35.28;21.08;;;;;;;-3.68;75.21;101837.31;6208421;23;20047;-73
2022/12/17 13:49:16;;;;;;;39.13;22.73;;;;;;;-3.98;76.20;101833.09;6191733;23;20055;-73
2022/12/17 13:52:28;;;;;;;40.58;25.52;;;;;;;-4.11;76.35;101840.38;6208880;23;20100;-73
2022/12/17 13:55:39;;;;;;;41.92;25.15;;;;;;;-3.88;76.80;101838.47;6206967;23;20027;-73
2022/12/17 13:58:50;;;;;;;38.58;25.38;;;;;;;-3.92;76.16;101841.78;6208047;23;20050;-73
2022/12/17 14:01:53;;;;;;;40.08;22.77;;;;;;;-3.88;76.69;101834.22;6208254;23;20078;-73
2022/12/17 14:05:01;;;;;;;38.30;23.83;;;;;;;-3.92;76.53;101831.56;6208423;23;20071;-74
2022/12/17 14:08:11;;;;;;;41.95;22.65;;;;;;;-3.98;76.20;101838.22;6208513;23;20027;-73
2022/12/17 14:15:30;;;;;;;37.30;23.65;;;;;;;-3.93;76.03;101842.56;6209155;23;20874;-73
2022/12/17 14:18:43;;;;;;;52.50;28.67;;;;;;;-4.30;77.67;101846.66;6227415;23;20031;-74
2022/12/17 14:22:04;;;;;;;29.95;18.98;;;;;;;-4.06;77.00;101851.59;6238278;23;20458;-73
2022/12/17 14:29:30;;;;;;;44.65;25.27;;;;;;;-4.05;76.39;101856.75;6239802;23;20028;-73
2022/12/17 14:32:42;;;;;;;41.33;24.52;;;;;;;-4.17;76.74;101861.50;6239443;23;20023;-72
2022/12/17 14:35:54;;;;;;;42.97;27.67;;;;;;;-4.18;76.92;101859.75;6239339;23;20027;-72
2022/12/17 14:39:14;;;;;;;40.67;24.13;;;;;;;-4.24;77.15;101857.91;6239135;23;20093;-73
2022/12/17 14:42:28;;;;;;;39.80;24.38;;;;;;;-4.29;77.85;101856.88;6241123;23;20397;-72
2022/12/17 14:46:29;;;;;;;;;;;;;;;;;;;;;
2022/12/17 14:49:55;;;;;;;37.30;24.20;;;;;;;-4.07;77.06;101858.38;6239939;23;20276;-72
2022/12/17 14:53:46;;;;;;;41.35;25.40;;;;;;;-4.34;76.95;101867.78;6239408;23;20632;-72
2022/12/17 14:57:23;;;;;;;37.75;23.35;;;;;;;-4.21;77.04;101864.78;6241603;23;20027;-72
2022/12/17 15:04:46;;;;;;;38.70;22.80;;;;;;;-4.13;77.08;101868.44;6241102;23;20038;-72
2022/12/17 15:07:50;;;;;;;37.03;23.42;;;;;;;-4.18;76.69;101877.63;6241306;23;20217;-72
2022/12/17 15:11:09;;;;;;;37.00;23.13;;;;;;;-4.24;77.36;101869.81;6239828;23;20023;-72
2022/12/17 15:14:12;;;;;;;38.13;24.90;;;;;;;-4.07;76.60;101873.72;6241174;23;20031;-73
2022/12/17 15:17:36;;;;;;;41.28;25.20;;;;;;;-4.00;76.22;101875.63;6235675;23;20376;-72
2022/12/17 15:21:12;;;;;;;35.35;21.48;;;;;;;-4.31;76.69;101878.94;6210750;23;20096;-72
2022/12/17 15:24:17;;;;;;;;;;;;;;;-4.42;77.45;101894.78;6211237;23;20431;-72
2022/12/17 15:27:20;;;;;;;38.90;23.75;;;;;;;-4.50;77.17;101886.88;6210727;23;20247;-73
2022/12/17 15:30:26;;;;;;;38.80;23.38;;;;;;;-4.34;77.14;101894.22;6210738;23;20118;-72
2022/12/17 15:33:30;;;;;;;42.38;25.30;;;;;;;-4.45;77.27;101891.31;6211481;23;20506;-72
2022/12/17 15:36:37;;;;;;;41.60;26.85;;;;;;;-4.24;77.10;101887.69;6210660;23;20099;-72
2022/12/17 15:39:42;;;;;;;53.40;25.92;;;;;;;-4.38;76.94;101905.13;6193608;23;20078;-72
2022/12/17 15:46:09;;;;;;;42.80;24.83;;;;;;;-4.30;76.85;101907.94;6210830;23;20092;-73
2022/12/17 15:49:48;;;;;;;40.33;25.33;;;;;;;-4.55;77.23;101904.59;6211227;23;20042;-73
2022/12/17 15:53:20;;;;;;;41.60;25.75;;;;;;;-4.33;77.25;101915.50;6210969;23;20027;-72
2022/12/17 15:56:53;;;;;;;35.72;21.80;;;;;;;-4.23;76.89;101917.50;6173336;23;20110;-71
2022/12/17 16:03:33;;;;;;;39.53;23.45;;;;;;;-4.27;76.96;101923.34;6209678;23;20092;-72
2022/12/17 16:07:19;;;;;;;36.75;23.60;;;;;;;-4.18;76.35;101928.72;6209743;23;20081;-72
2022/12/17 16:10:45;;;;;;;33.88;22.02;;;;;;;-4.34;77.02;101934.16;6191509;23;20083;-72
2022/12/17 16:14:25;;;;;;;36.08;22.13;;;;;;;-4.41;76.56;101932.25;6210812;23;20471;-73
2022/12/17 16:17:29;;;;;;;32.45;21.42;;;;;;;-4.63;77.26;101936.66;6134498;23;20080;-72
2022/12/17 16:21:25;;;;;;;36.03;22.85;;;;;;;-4.56;77.49;101933.50;6217663;22;20387;-73
2022/12/17 16:24:52;;;;;;;35.58;23.38;;;;;;;-4.83;78.04;101938.56;6237902;23;20027;-73
2022/12/17 16:28:03;;;;;;;36.63;20.92;;;;;;;-4.47;76.75;101938.91;6240968;23;20026;-73
2022/12/17 16:31:48;;;;;;;38.80;22.50;;;;;;;-4.59;77.64;101938.53;6240192;23;20027;-73
2022/12/17 16:34:53;;;;;;;36.72;21.85;;;;;;;-4.78;77.05;101938.75;6240288;23;20026;-72
2022/12/17 16:37:59;;;;;;;37.83;23.33;;;;;;;-4.78;77.38;101938.75;6241060;23;20081;-73
2022/12/17 16:41:10;;;;;;;33.78;21.83;;;;;;;-4.78;77.84;101948.94;6240108;23;20091;-73
2022/12/17 16:44:31;;;;;;;33.65;21.27;;;;;;;-4.77;77.58;101948.13;6240764;23;20042;-72
2022/12/17 16:49:03;;;;;;;;;;;;;;;;;;;;;
2022/12/17 16:59:34;;;;;;;35.58;21.50;;;;;;;-4.50;76.59;101958.34;6149989;23;20426;-74
2022/12/17 17:02:37;;;;;;;32.97;20.52;;;;;;;-4.67;76.05;101960.34;6150106;23;20024;-73
2022/12/17 17:05:41;;;;;;;36.42;22.58;;;;;;;-4.71;76.38;101959.41;6151252;23;20295;-73
2022/12/17 17:12:44;;;;;;;32.55;20.90;;;;;;;-4.70;75.86;101968.78;6149307;23;20369;-74
2022/12/17 17:15:48;;;;;;;34.63;21.42;;;;;;;-4.59;75.83;101973.41;6131916;23;20076;-74
2022/12/17 17:18:57;;;;;;;34.13;21.17;;;;;;;-4.64;75.53;101969.81;6151018;23;20349;-73
2022/12/17 17:22:00;;;;;;;35.97;21.88;;;;;;;-4.62;75.21;101963.94;6150926;23;20503;-73
2022/12/17 17:25:04;;;;;;;32.53;20.35;;;;;;;-4.61;75.92;101964.81;6150846;23;20024;-73
2022/12/17 17:28:08;;;;;;;37.60;21.27;;;;;;;-4.69;76.20;101972.19;6147890;23;20028;-73
2022/12/17 17:31:18;;;;;;;34.63;21.48;;;;;;;-4.56;76.03;101974.34;6148231;23;20075;-73
2022/12/17 17:35:17;;;;;;;35.90;20.88;;;;;;;-4.56;76.00;101979.47;6148457;23;20032;-73
2022/12/17 17:39:33;;;;;;;33.50;21.15;;;;;;;-4.77;76.68;101968.53;6057458;23;20030;-73
2022/12/17 17:59:19;;;;;;;38.40;23.00;;;;;;;-4.89;77.27;101980.88;5700234;24;20036;-73
2022/12/17 18:02:35;;;;;;;;;;;;;;;-4.90;76.73;101977.47;5667815;24;20108;-73
2022/12/17 18:06:04;;;;;;;39.30;22.15;;;;;;;-4.78;76.85;101984.66;5812751;24;20281;-73
2022/12/17 18:14:20;;;;;;;37.42;21.13;;;;;;;-4.92;77.70;101986.72;5973804;23;20311;-73
2022/12/17 18:17:29;;;;;;;39.42;22.73;;;;;;;-4.57;75.92;101987.91;5972182;23;20083;-73
2022/12/17 20:16:02;;;;;;;43.07;23.23;;;;;;;-5.03;72.17;102037.38;6186274;23;20056;-74
2022/12/17 20:20:00;;;;;;;37.93;22.60;;;;;;;-5.39;73.70;102044.56;6186049;23;20514;-74
2022/12/17 20:24:39;;;;;;;40.50;23.58;;;;;;;-5.17;73.48;102048.75;6185745;23;20051;-74
2022/12/17 20:33:21;;;;;;;38.17;22.03;;;;;;;-5.29;72.46;102043.25;6094747;23;20375;-73
2022/12/17 20:40:57;;;;;;;40.45;25.35;;;;;;;-5.20;73.15;102039.34;6089880;23;20021;-74
